Time;durP1;ratioP1;P1;durP2;ratioP2;P2;SDS_P1;SDS_P2;PMS_P1;PMS_P2;Temp;Humidity;BMP_temperature;BMP_pressure;BME280_temperature;BME280_humidity;BME280_pressure;Samples;Min_cycle;Max_cycle;Signal;HPM_P1;HPM_P2
2023/03/05 00:02:08;;;;;;;2.05;1.17;;;8.50;79.80;;;;;;5094330;27;20070;-78
2023/03/05 00:04:34;;;;;;;2.30;1.00;;;8.50;79.90;;;;;;5084159;27;20511;-77
2023/03/05 00:06:59;;;;;;;1.35;0.90;;;8.50;79.90;;;;;;5068970;27;20024;-78
2023/03/05 00:09:25;;;;;;;1.90;0.80;;;8.50;79.90;;;;;;5074437;27;20027;-78
2023/03/05 00:11:51;;;;;;;1.60;1.10;;;8.50;79.90;;;;;;5081016;27;20023;-80
2023/03/05 00:14:17;;;;;;;1.73;0.90;;;8.50;80.00;;;;;;5056649;28;20338;-80
2023/03/05 00:16:42;;;;;;;1.70;0.90;;;8.50;80.00;;;;;;5080509;28;20084;-80
2023/03/05 00:19:09;;;;;;;2.35;1.00;;;8.50;80.00;;;;;;5095446;27;20074;-78
2023/03/05 00:21:39;;;;;;;2.40;1.10;;;8.50;80.10;;;;;;5062444;27;20065;-79
2023/03/05 00:24:09;;;;;;;1.50;0.90;;;8.50;80.30;;;;;;5092038;27;20110;-78
2023/03/05 00:26:37;;;;;;;2.53;1.40;;;8.40;80.10;;;;;;5083088;27;20039;-79
2023/03/05 00:29:05;;;;;;;2.90;1.10;;;8.40;80.00;;;;;;5071489;27;26221;-77
2023/03/05 00:31:32;;;;;;;1.88;0.90;;;8.40;80.00;;;;;;5083093;27;20062;-79
2023/03/05 00:34:02;;;;;;;1.50;0.90;;;8.40;80.10;;;;;;5074469;27;20049;-80
2023/03/05 00:36:28;;;;;;;2.08;1.05;;;8.40;80.20;;;;;;5102048;27;20024;-78
2023/03/05 00:38:54;;;;;;;1.98;1.00;;;8.30;80.10;;;;;;5064521;27;20507;-80
2023/03/05 00:41:20;;;;;;;2.40;1.00;;;8.30;80.20;;;;;;5079008;27;20577;-79
2023/03/05 00:43:46;;;;;;;2.47;0.97;;;8.30;80.30;;;;;;5060963;27;20051;-80
2023/03/05 00:46:12;;;;;;;1.70;1.10;;;8.30;80.50;;;;;;5046984;27;20023;-78
2023/03/05 00:48:38;;;;;;;2.80;1.20;;;8.30;80.40;;;;;;5094474;27;20156;-78
2023/03/05 00:51:04;;;;;;;2.10;1.50;;;8.30;80.40;;;;;;5059225;27;20019;-78
2023/03/05 00:53:30;;;;;;;2.25;1.20;;;8.30;80.50;;;;;;5067324;27;20417;-78
2023/03/05 00:55:56;;;;;;;2.70;1.20;;;8.30;80.60;;;;;;5048797;27;20079;-80
2023/03/05 00:58:21;;;;;;;2.40;1.13;;;8.30;80.70;;;;;;5083827;27;20027;-77
2023/03/05 01:00:49;;;;;;;1.85;0.95;;;8.30;80.60;;;;;;5053809;27;20046;-79
2023/03/05 01:03:16;;;;;;;2.40;1.25;;;8.30;80.70;;;;;;5058182;27;20558;-79
2023/03/05 01:05:43;;;;;;;2.20;1.20;;;8.30;80.80;;;;;;5083217;27;20476;-80
2023/03/05 01:08:08;;;;;;;3.38;1.00;;;8.30;80.70;;;;;;5067275;27;20019;-77
2023/03/05 01:10:34;;;;;;;1.73;0.98;;;8.30;80.80;;;;;;5084066;27;20108;-79
2023/03/05 01:13:00;;;;;;;2.73;1.60;;;8.20;80.70;;;;;;5072144;27;20049;-78
2023/03/05 01:15:26;;;;;;;2.13;1.20;;;8.20;80.70;;;;;;5054767;28;20101;-78
2023/03/05 01:17:52;;;;;;;1.75;1.00;;;8.20;80.80;;;;;;5085891;27;20134;-80
2023/03/05 01:20:20;;;;;;;1.50;1.17;;;8.20;80.70;;;;;;5055517;27;20222;-79
2023/03/05 01:22:45;;;;;;;1.65;1.00;;;8.20;80.90;;;;;;5084729;27;20028;-80
2023/03/05 01:25:13;;;;;;;2.20;1.00;;;8.10;80.60;;;;;;5061483;28;20160;-78
2023/03/05 01:27:39;;;;;;;1.67;0.90;;;8.10;80.70;;;;;;5093291;27;20047;-78
2023/03/05 01:30:07;;;;;;;2.35;1.23;;;8.10;80.60;;;;;;5059638;27;20028;-78
2023/03/05 01:32:33;;;;;;;1.50;1.00;;;8.10;80.60;;;;;;5076888;27;20080;-78
2023/03/05 01:35:01;;;;;;;1.55;0.95;;;8.00;80.60;;;;;;5074564;27;20048;-79
2023/03/05 01:37:27;;;;;;;2.03;1.10;;;8.00;80.80;;;;;;5100780;27;20028;-78
2023/03/05 01:39:53;;;;;;;2.10;1.03;;;8.00;80.90;;;;;;5080617;28;20069;-80
2023/03/05 01:42:19;;;;;;;2.60;1.17;;;8.00;81.10;;;;;;5090245;27;20633;-78
2023/03/05 01:45:12;;;;;;;1.90;1.20;;;7.90;81.10;;;;;;5069910;28;20068;-80
2023/03/05 01:47:38;;;;;;;1.50;0.88;;;7.90;81.90;;;;;;5051495;27;20559;-78
2023/03/05 01:50:07;;;;;;;2.03;0.93;;;7.90;81.10;;;;;;5101674;27;20431;-78
2023/03/05 01:52:36;;;;;;;2.15;1.02;;;7.90;81.30;;;;;;5099369;27;20032;-79
2023/03/05 01:55:06;;;;;;;2.35;1.10;;;7.90;81.40;;;;;;5115374;27;20132;-78
2023/03/05 01:57:37;;;;;;;2.80;1.10;;;7.90;81.40;;;;;;5085926;27;20026;-78
2023/03/05 02:00:11;;;;;;;1.92;1.02;;;7.90;81.40;;;;;;5066290;28;20311;-77
2023/03/05 02:02:37;;;;;;;1.70;1.10;;;7.90;81.70;;;;;;5064218;27;20031;-79
2023/03/05 02:05:09;;;;;;;3.58;1.23;;;7.90;81.60;;;;;;5079554;27;20530;-78
2023/03/05 02:07:38;;;;;;;1.98;1.13;;;7.90;81.60;;;;;;5060303;28;20035;-80
2023/03/05 02:10:15;;;;;;;2.10;1.17;;;7.90;81.50;;;;;;5081279;27;21544;-78
2023/03/05 02:12:41;;;;;;;2.03;1.10;;;7.90;81.90;;;;;;5097733;27;20137;-78
2023/03/05 02:15:08;;;;;;;2.70;1.20;;;7.90;81.60;;;;;;5072542;27;20019;-79
2023/03/05 02:17:33;;;;;;;2.88;1.30;;;7.90;81.60;;;;;;5078879;27;20024;-80
2023/03/05 02:20:28;;;;;;;2.70;1.20;;;7.90;81.60;;;;;;5095015;27;20399;-79
2023/03/05 02:22:54;;;;;;;2.20;1.43;;;7.90;81.90;;;;;;5067237;28;20039;-77
2023/03/05 02:25:26;;;;;;;2.67;1.50;;;7.90;81.40;;;;;;5080135;27;20339;-80
2023/03/05 02:28:01;;;;;;;4.13;1.35;;;7.90;81.50;;;;;;5096953;27;21175;-78
2023/03/05 02:30:28;;;;;;;1.90;1.17;;;7.90;81.60;;;;;;5084280;27;20027;-80
2023/03/05 02:32:53;;;;;;;2.22;1.27;;;7.80;81.10;;;;;;5073652;27;20361;-78
2023/03/05 02:35:20;;;;;;;2.40;1.27;;;7.80;80.90;;;;;;5080771;28;20031;-80
2023/03/05 02:37:46;;;;;;;3.70;1.70;;;7.80;80.90;;;;;;5078470;27;20152;-78
2023/03/05 02:40:13;;;;;;;2.87;1.40;;;7.70;80.80;;;;;;5093969;27;20593;-77
2023/03/05 02:42:39;;;;;;;3.38;1.48;;;7.60;80.90;;;;;;5078701;28;20311;-77
2023/03/05 02:45:05;;;;;;;2.47;1.30;;;7.60;81.00;;;;;;5107758;27;20023;-78
2023/03/05 02:47:31;;;;;;;2.92;1.30;;;7.60;81.20;;;;;;5060685;28;20110;-80
2023/03/05 02:49:57;;;;;;;3.07;1.40;;;7.60;81.40;;;;;;5071637;27;20046;-78
2023/03/05 02:52:24;;;;;;;2.33;1.30;;;7.50;81.40;;;;;;5080722;27;20481;-80
2023/03/05 02:54:50;;;;;;;2.45;1.52;;;7.50;81.50;;;;;;5073605;27;20241;-78
2023/03/05 02:57:16;;;;;;;3.42;1.50;;;7.50;81.60;;;;;;5082243;27;20392;-78
2023/03/05 02:59:42;;;;;;;1.87;1.20;;;7.50;81.80;;;;;;5061815;27;20567;-78
2023/03/05 03:02:08;;;;;;;2.40;1.30;;;7.50;81.80;;;;;;5081252;27;20031;-78
2023/03/05 03:04:34;;;;;;;2.90;1.40;;;7.50;81.90;;;;;;5051349;27;20027;-80
2023/03/05 03:07:00;;;;;;;2.67;1.53;;;7.50;82.10;;;;;;5083750;27;20055;-79
2023/03/05 03:09:25;;;;;;;3.03;1.40;;;7.50;82.10;;;;;;5079725;27;20027;-80
2023/03/05 03:11:52;;;;;;;2.50;1.20;;;7.50;82.10;;;;;;5074391;28;20020;-78
2023/03/05 03:14:18;;;;;;;2.35;1.40;;;7.60;82.10;;;;;;5096218;27;20491;-78
2023/03/05 03:16:43;;;;;;;3.50;1.50;;;7.60;82.10;;;;;;5050045;27;20020;-78
2023/03/05 03:19:09;;;;;;;2.90;1.47;;;7.60;82.20;;;;;;5056684;27;20047;-80
2023/03/05 03:21:35;;;;;;;2.70;1.40;;;7.60;82.20;;;;;;5076888;27;20152;-80
2023/03/05 03:24:00;;;;;;;2.60;1.30;;;7.60;82.20;;;;;;5067903;27;20281;-77
2023/03/05 03:26:26;;;;;;;3.00;1.50;;;7.60;82.10;;;;;;5056829;28;20036;-80
2023/03/05 03:28:52;;;;;;;1.70;1.20;;;7.60;82.10;;;;;;5083343;27;20354;-79
2023/03/05 03:31:18;;;;;;;2.70;1.40;;;7.60;82.10;;;;;;5090155;27;20043;-80
2023/03/05 03:33:44;;;;;;;3.22;1.50;;;7.50;82.10;;;;;;5055766;28;20749;-78
2023/03/05 03:36:10;;;;;;;2.03;1.20;;;7.50;82.10;;;;;;5081651;27;20062;-79
2023/03/05 03:38:36;;;;;;;2.42;1.17;;;7.50;82.10;;;;;;5078556;27;20027;-81
2023/03/05 03:41:06;;;;;;;2.75;1.30;;;7.50;82.10;;;;;;5075173;28;20114;-78
2023/03/05 03:43:33;;;;;;;2.20;1.23;;;7.50;82.20;;;;;;5098021;27;20023;-81
2023/03/05 03:45:59;;;;;;;3.72;1.45;;;7.50;82.10;;;;;;5072734;28;20023;-78
2023/03/05 03:48:25;;;;;;;2.92;1.33;;;7.50;82.20;;;;;;5064256;28;20035;-80
2023/03/05 03:50:51;;;;;;;3.22;1.30;;;7.50;82.20;;;;;;5036408;28;20707;-78
2023/03/05 03:53:16;;;;;;;2.97;1.27;;;7.40;82.20;;;;;;5082285;28;20484;-78
2023/03/05 03:55:45;;;;;;;2.55;1.20;;;7.40;82.20;;;;;;5052169;28;20128;-78
2023/03/05 03:58:11;;;;;;;2.35;1.35;;;7.40;82.30;;;;;;5101091;28;20008;-80
2023/03/05 04:00:38;;;;;;;2.93;1.27;;;7.40;82.40;;;;;;5058710;28;20030;-80
2023/03/05 04:03:03;;;;;;;2.65;1.50;;;7.40;82.40;;;;;;5090871;28;20521;-79
2023/03/05 04:05:29;;;;;;;2.67;1.50;;;7.40;82.40;;;;;;5071360;28;20027;-80
2023/03/05 04:07:57;;;;;;;2.20;1.30;;;7.40;82.40;;;;;;5096668;28;20257;-78
2023/03/05 04:10:23;;;;;;;2.88;1.60;;;7.40;82.40;;;;;;5076472;28;21056;-79
2023/03/05 04:12:49;;;;;;;2.95;1.50;;;7.40;82.60;;;;;;5058314;28;20020;-80
2023/03/05 04:15:14;;;;;;;3.83;1.57;;;7.40;82.60;;;;;;5093531;28;20615;-78
2023/03/05 04:17:40;;;;;;;3.40;1.67;;;7.40;82.60;;;;;;5052567;28;20035;-80
2023/03/05 04:20:09;;;;;;;3.47;1.48;;;7.40;82.60;;;;;;5035673;28;20221;-77
2023/03/05 04:22:35;;;;;;;3.10;1.40;;;7.40;82.70;;;;;;5099275;28;20028;-78
2023/03/05 04:25:05;;;;;;;3.50;1.50;;;7.40;82.70;;;;;;5078785;28;20232;-80
2023/03/05 04:27:33;;;;;;;3.75;1.50;;;7.40;82.70;;;;;;5059184;28;20051;-79
2023/03/05 04:29:59;;;;;;;2.58;1.45;;;7.30;82.80;;;;;;5077650;28;20185;-78
2023/03/05 04:32:28;;;;;;;2.67;1.55;;;7.30;82.80;;;;;;5073388;28;20319;-78
2023/03/05 04:34:55;;;;;;;3.30;1.60;;;7.40;82.90;;;;;;5097245;28;20051;-80
2023/03/05 04:37:21;;;;;;;2.58;1.67;;;7.30;82.80;;;;;;5073342;28;20034;-78
2023/03/05 04:39:47;;;;;;;2.90;1.50;;;7.30;82.90;;;;;;5096780;28;20023;-80
2023/03/05 04:42:12;;;;;;;3.67;1.70;;;7.30;82.80;;;;;;5090148;27;20061;-78
2023/03/05 04:44:38;;;;;;;2.60;1.60;;;7.30;82.90;;;;;;5055719;28;20028;-80
2023/03/05 04:47:04;;;;;;;2.67;1.50;;;7.30;82.90;;;;;;5080662;27;20039;-78
2023/03/05 04:49:30;;;;;;;2.30;1.40;;;7.30;82.90;;;;;;5060475;27;20080;-79
2023/03/05 04:51:56;;;;;;;2.60;1.30;;;7.30;83.00;;;;;;5052565;27;21835;-78
2023/03/05 04:54:23;;;;;;;4.10;2.03;;;7.30;83.10;;;;;;5067922;27;20012;-78
2023/03/05 04:56:49;;;;;;;2.13;1.20;;;7.30;83.10;;;;;;5070288;27;20020;-77
2023/03/05 04:59:15;;;;;;;3.08;1.45;;;7.30;83.10;;;;;;5075988;27;20042;-80
2023/03/05 05:01:40;;;;;;;4.23;1.60;;;7.30;83.10;;;;;;5061291;28;20023;-81
2023/03/05 05:04:06;;;;;;;2.40;1.40;;;7.30;83.20;;;;;;5093149;27;20426;-78
2023/03/05 05:06:32;;;;;;;3.63;1.48;;;7.30;83.20;;;;;;5093264;27;20574;-81
2023/03/05 05:08:58;;;;;;;3.10;1.50;;;7.30;83.20;;;;;;5055143;28;20838;-77
2023/03/05 05:11:24;;;;;;;2.63;1.40;;;7.30;83.20;;;;;;5097269;27;20028;-78
2023/03/05 05:13:50;;;;;;;3.20;1.50;;;7.30;83.30;;;;;;5067093;27;20534;-79
2023/03/05 05:16:16;;;;;;;2.65;1.38;;;7.30;83.30;;;;;;5099831;27;20023;-79
2023/03/05 05:18:41;;;;;;;3.20;1.65;;;7.20;83.30;;;;;;5074807;27;20042;-80
2023/03/05 05:21:10;;;;;;;3.73;1.40;;;7.30;83.30;;;;;;5113660;27;20024;-78
2023/03/05 05:23:36;;;;;;;2.60;1.50;;;7.30;83.40;;;;;;5057017;27;20689;-80
2023/03/05 05:26:03;;;;;;;3.97;1.50;;;7.30;83.30;;;;;;5075722;27;20237;-80
2023/03/05 05:28:29;;;;;;;3.13;1.55;;;7.30;83.40;;;;;;5080917;27;20409;-80
2023/03/05 05:30:55;;;;;;;4.70;1.40;;;7.20;83.30;;;;;;5067975;28;20030;-79
2023/03/05 05:33:22;;;;;;;2.58;1.48;;;7.20;83.40;;;;;;5096035;27;20656;-78
2023/03/05 05:35:48;;;;;;;2.97;1.60;;;7.20;83.50;;;;;;5056023;27;20539;-79
2023/03/05 05:38:13;;;;;;;2.38;1.40;;;7.30;83.50;;;;;;5099741;27;20020;-78
2023/03/05 05:40:40;;;;;;;2.97;1.50;;;7.20;83.50;;;;;;5072315;27;20107;-80
2023/03/05 05:43:06;;;;;;;2.72;1.40;;;7.20;83.50;;;;;;5061853;28;20031;-78
2023/03/05 05:45:32;;;;;;;3.42;1.75;;;7.20;83.50;;;;;;5067737;27;20046;-80
2023/03/05 05:47:58;;;;;;;3.67;1.90;;;7.20;83.50;;;;;;5078832;27;20168;-77
2023/03/05 05:50:25;;;;;;;2.60;1.30;;;7.20;83.60;;;;;;5072956;27;20073;-79
2023/03/05 05:52:51;;;;;;;3.33;1.77;;;7.20;83.60;;;;;;5086700;27;20019;-77
2023/03/05 05:55:17;;;;;;;3.95;1.50;;;7.20;83.60;;;;;;5075406;27;20031;-78
2023/03/05 05:57:43;;;;;;;2.70;1.60;;;7.20;83.60;;;;;;5061822;27;20026;-80
2023/03/05 06:00:11;;;;;;;3.63;1.48;;;7.20;83.60;;;;;;5101849;27;20036;-78
2023/03/05 06:02:38;;;;;;;2.80;1.48;;;7.30;83.80;;;;;;5077405;27;20248;-80
2023/03/05 06:05:05;;;;;;;2.03;1.33;;;7.20;83.70;;;;;;5080605;28;20039;-79
2023/03/05 06:07:34;;;;;;;3.22;1.48;;;7.20;83.70;;;;;;5056075;27;20096;-80
2023/03/05 06:09:59;;;;;;;2.37;1.40;;;7.30;83.80;;;;;;5056985;27;20039;-78
2023/03/05 06:12:25;;;;;;;2.20;1.38;;;7.20;83.70;;;;;;5052972;27;20054;-80
2023/03/05 06:14:51;;;;;;;2.42;1.50;;;7.20;83.80;;;;;;5081867;27;20027;-78
2023/03/05 06:17:17;;;;;;;3.23;1.70;;;7.20;83.70;;;;;;5090916;27;20270;-80
2023/03/05 06:19:42;;;;;;;4.00;2.00;;;7.20;83.80;;;;;;5073536;27;20660;-78
2023/03/05 06:22:08;;;;;;;3.60;1.70;;;7.30;84.00;;;;;;5074588;27;20806;-79
2023/03/05 06:24:34;;;;;;;3.50;1.90;;;7.20;83.80;;;;;;5063576;27;20656;-79
2023/03/05 06:26:59;;;;;;;4.20;1.60;;;7.20;83.90;;;;;;5057081;28;20408;-78
2023/03/05 06:29:25;;;;;;;3.73;1.90;;;7.20;83.90;;;;;;5053403;27;20058;-80
2023/03/05 06:31:51;;;;;;;4.03;1.90;;;7.20;84.00;;;;;;5073615;27;20062;-78
2023/03/05 06:34:17;;;;;;;3.22;1.90;;;7.20;84.00;;;;;;5082074;28;20031;-80
2023/03/05 06:36:43;;;;;;;3.53;1.90;;;7.20;84.10;;;;;;5081682;27;22762;-78
2023/03/05 06:39:08;;;;;;;3.50;1.90;;;7.20;84.10;;;;;;5066391;27;20473;-79
2023/03/05 06:41:34;;;;;;;3.63;2.03;;;7.20;84.00;;;;;;5074214;27;20027;-78
2023/03/05 06:44:01;;;;;;;4.10;2.00;;;7.20;84.10;;;;;;5050521;27;20031;-80
2023/03/05 06:46:33;;;;;;;3.88;1.90;;;7.20;84.00;;;;;;5075581;28;20016;-79
2023/03/05 06:49:02;;;;;;;3.83;1.98;;;7.20;84.20;;;;;;5047223;27;20039;-81
2023/03/05 06:51:33;;;;;;;2.85;1.80;;;7.20;84.20;;;;;;5076103;27;20126;-78
2023/03/05 06:54:02;;;;;;;4.53;2.07;;;7.20;84.40;;;;;;5036171;28;20055;-77
2023/03/05 06:56:28;;;;;;;3.42;1.90;;;7.20;84.40;;;;;;5089435;27;20389;-79
2023/03/05 06:58:54;;;;;;;4.25;1.90;;;7.20;85.20;;;;;;5052965;28;20024;-80
2023/03/05 07:01:20;;;;;;;3.60;2.23;;;7.20;84.50;;;;;;5062308;28;20030;-78
2023/03/05 07:03:51;;;;;;;3.13;2.00;;;7.20;84.60;;;;;;5067025;28;20031;-80
2023/03/05 07:06:17;;;;;;;5.25;1.95;;;7.30;85.00;;;;;;5066187;28;20604;-78
2023/03/05 07:08:46;;;;;;;4.32;2.15;;;7.30;85.00;;;;;;5085224;27;20023;-81
2023/03/05 07:11:17;;;;;;;3.20;2.08;;;7.40;84.90;;;;;;5063008;27;20603;-78
2023/03/05 07:13:46;;;;;;;3.50;2.20;;;7.40;84.90;;;;;;5049296;27;20022;-80
2023/03/05 07:16:15;;;;;;;4.38;2.10;;;7.40;84.90;;;;;;5049248;28;20437;-78
2023/03/05 07:18:41;;;;;;;4.03;2.15;;;7.40;85.00;;;;;;5076782;27;20076;-81
2023/03/05 07:21:07;;;;;;;3.15;2.00;;;7.40;85.10;;;;;;5073086;28;20035;-80
2023/03/05 07:23:34;;;;;;;3.60;2.00;;;7.50;85.10;;;;;;5069880;28;20037;-79
2023/03/05 07:26:05;;;;;;;3.93;2.30;;;7.60;85.20;;;;;;5062185;27;20067;-77
2023/03/05 07:28:32;;;;;;;3.85;2.00;;;7.50;85.30;;;;;;5064948;27;20404;-78
2023/03/05 07:31:07;;;;;;;3.97;1.80;;;7.60;85.20;;;;;;5062257;28;20023;-78
2023/03/05 07:33:34;;;;;;;3.17;1.95;;;7.60;85.50;;;;;;5049001;28;20481;-78
2023/03/05 07:36:00;;;;;;;2.88;1.90;;;7.70;85.40;;;;;;5068795;28;20023;-79
2023/03/05 07:38:26;;;;;;;3.43;1.70;;;7.70;85.50;;;;;;5072252;28;20038;-78
2023/03/05 07:40:52;;;;;;;3.13;1.73;;;7.80;85.50;;;;;;5065099;28;20028;-80
2023/03/05 07:43:18;;;;;;;3.22;1.75;;;7.80;85.50;;;;;;5098072;27;20058;-78
2023/03/05 07:45:44;;;;;;;3.40;1.63;;;7.80;85.60;;;;;;5057261;28;20031;-80
2023/03/05 07:48:19;;;;;;;2.85;1.67;;;7.90;85.70;;;;;;5086984;28;20265;-78
2023/03/05 07:50:45;;;;;;;3.25;1.80;;;7.90;86.00;;;;;;5055934;28;20645;-78
2023/03/05 07:53:12;;;;;;;2.70;1.40;;;8.00;85.90;;;;;;5075659;28;20024;-80
2023/03/05 07:55:45;;;;;;;3.17;1.80;;;8.00;85.90;;;;;;5044160;28;21618;-79
2023/03/05 07:58:12;;;;;;;3.28;1.80;;;8.10;86.20;;;;;;5066896;28;20023;-80
2023/03/05 08:00:39;;;;;;;2.80;1.48;;;8.20;85.90;;;;;;5050822;28;20361;-78
2023/03/05 08:03:05;;;;;;;2.92;1.75;;;8.20;85.70;;;;;;5062173;28;20016;-81
2023/03/05 08:05:31;;;;;;;2.95;1.77;;;8.20;85.60;;;;;;5060176;28;20251;-80
2023/03/05 08:07:57;;;;;;;3.93;1.70;;;8.30;85.60;;;;;;5080710;28;20506;-78
2023/03/05 08:10:23;;;;;;;2.50;1.80;;;8.30;85.60;;;;;;5034353;28;20024;-80
2023/03/05 08:12:48;;;;;;;3.63;1.70;;;8.30;85.60;;;;;;5071824;28;20502;-81
2023/03/05 08:15:14;;;;;;;2.97;1.50;;;8.40;85.60;;;;;;5081356;28;20608;-83
2023/03/05 08:17:40;;;;;;;2.40;1.50;;;8.50;85.90;;;;;;5057475;27;20093;-82
2023/03/05 08:20:10;;;;;;;3.00;1.63;;;8.50;86.10;;;;;;5086977;27;20029;-81
2023/03/05 08:22:36;;;;;;;2.97;1.58;;;8.60;86.10;;;;;;5082269;27;20054;-78
2023/03/05 08:25:03;;;;;;;2.60;1.40;;;8.70;86.00;;;;;;5075166;27;20554;-78
2023/03/05 08:27:29;;;;;;;3.30;1.90;;;8.70;85.90;;;;;;5056800;28;20914;-78
2023/03/05 08:29:55;;;;;;;2.45;1.40;;;8.80;85.80;;;;;;5068946;27;20037;-78
2023/03/05 08:32:21;;;;;;;2.50;1.60;;;8.80;85.40;;;;;;5053460;27;20610;-81
2023/03/05 08:34:47;;;;;;;3.30;1.80;;;8.80;85.20;;;;;;5047662;27;20269;-78
2023/03/05 08:37:12;;;;;;;2.95;1.90;;;8.80;84.90;;;;;;5092712;27;20055;-81
2023/03/05 08:39:38;;;;;;;3.72;2.05;;;8.80;84.70;;;;;;5086566;27;20122;-78
2023/03/05 08:42:04;;;;;;;2.73;1.80;;;8.80;84.70;;;;;;5070126;27;20035;-80
2023/03/05 08:44:30;;;;;;;4.30;2.20;;;8.70;84.70;;;;;;5079206;27;20023;-79
2023/03/05 08:46:56;;;;;;;3.00;1.70;;;8.70;84.60;;;;;;5062989;27;20019;-80
2023/03/05 08:49:22;;;;;;;2.43;1.43;;;8.60;84.50;;;;;;5085338;27;20023;-79
2023/03/05 08:51:48;;;;;;;2.60;1.60;;;8.60;84.50;;;;;;5089756;27;20085;-79
2023/03/05 08:54:14;;;;;;;3.33;1.50;;;8.60;84.50;;;;;;5097532;27;20027;-80
2023/03/05 08:56:39;;;;;;;2.17;1.40;;;8.50;84.50;;;;;;5061078;27;20028;-81
2023/03/05 08:59:06;;;;;;;2.45;1.38;;;8.40;84.50;;;;;;5061016;28;20104;-78
2023/03/05 09:01:32;;;;;;;2.78;1.80;;;8.40;84.80;;;;;;5087634;27;20089;-83
2023/03/05 09:03:58;;;;;;;2.27;1.40;;;8.40;85.00;;;;;;5086293;27;20028;-80
2023/03/05 09:06:25;;;;;;;2.72;1.50;;;8.40;85.00;;;;;;5082935;27;20028;-80
2023/03/05 09:08:51;;;;;;;1.70;1.30;;;8.30;85.00;;;;;;5075480;27;20055;-80
2023/03/05 09:11:17;;;;;;;2.05;1.40;;;8.30;85.10;;;;;;5065803;27;20038;-80
2023/03/05 09:13:43;;;;;;;2.77;1.30;;;8.30;85.30;;;;;;5051904;28;20023;-80
2023/03/05 09:16:13;;;;;;;2.10;1.20;;;8.30;85.30;;;;;;5083073;27;20372;-80
2023/03/05 09:18:39;;;;;;;1.52;1.13;;;8.30;85.60;;;;;;5069073;27;20035;-80
2023/03/05 09:21:07;;;;;;;1.77;0.93;;;8.30;85.60;;;;;;5069924;27;20024;-79
2023/03/05 09:23:33;;;;;;;1.50;0.93;;;8.30;85.80;;;;;;5064668;28;20028;-80
2023/03/05 09:25:59;;;;;;;1.55;1.00;;;8.40;86.20;;;;;;5065007;27;20242;-80
2023/03/05 09:28:24;;;;;;;2.25;1.08;;;8.50;86.60;;;;;;5068280;27;20023;-80
2023/03/05 09:30:50;;;;;;;1.63;1.00;;;8.50;86.80;;;;;;5057285;27;20260;-78
2023/03/05 09:33:16;;;;;;;1.20;0.80;;;8.60;86.80;;;;;;5074377;27;20024;-78
2023/03/05 09:35:42;;;;;;;1.50;0.70;;;8.70;86.70;;;;;;5085416;27;20462;-80
2023/03/05 09:38:08;;;;;;;2.17;0.98;;;8.70;86.80;;;;;;5099692;27;20035;-80
2023/03/05 09:40:55;;;;;;;1.27;0.82;;;8.90;86.90;;;;;;5085801;27;20102;-80
2023/03/05 09:43:33;;;;;;;3.03;0.90;;;9.00;87.30;;;;;;5075778;27;20350;-78
2023/03/05 09:46:10;;;;;;;0.80;0.80;;;9.00;87.20;;;;;;5089618;27;20185;-79
2023/03/05 09:48:57;;;;;;;0.85;0.70;;;9.10;87.20;;;;;;5053154;27;20043;-80
2023/03/05 09:51:30;;;;;;;0.70;0.70;;;9.30;87.00;;;;;;5083202;27;20054;-80
2023/03/05 09:54:17;;;;;;;1.02;0.80;;;9.30;86.80;;;;;;5061947;27;20435;-79
2023/03/05 09:56:50;;;;;;;1.53;0.80;;;9.40;86.90;;;;;;5086189;27;20038;-79
2023/03/05 09:59:42;;;;;;;1.10;0.90;;;9.50;87.30;;;;;;5055259;28;20036;-79
2023/03/05 10:02:23;;;;;;;1.10;0.80;;;9.60;87.90;;;;;;5055610;27;20036;-81
2023/03/05 10:04:57;;;;;;;1.55;0.80;;;9.80;88.40;;;;;;5026502;28;20504;-80
2023/03/05 10:07:30;;;;;;;1.20;0.80;;;10.10;88.90;;;;;;5103589;27;20024;-79
2023/03/05 10:09:58;;;;;;;0.60;0.60;;;10.30;88.60;;;;;;5070229;27;20027;-79
2023/03/05 10:12:41;;;;;;;0.88;0.75;;;10.50;88.30;;;;;;5078453;27;20396;-79
2023/03/05 10:15:13;;;;;;;0.85;0.65;;;10.60;87.00;;;;;;5059973;27;20085;-79
2023/03/05 10:17:38;;;;;;;1.92;0.80;;;10.70;86.20;;;;;;5056729;27;20603;-81
2023/03/05 10:20:30;;;;;;;0.60;0.57;;;10.80;85.80;;;;;;5097341;27;20032;-78
2023/03/05 10:23:24;;;;;;;0.60;0.60;;;10.80;85.00;;;;;;5080523;27;20243;-79
2023/03/05 10:26:11;;;;;;;0.70;0.70;;;10.80;84.50;;;;;;5068211;27;20031;-78
2023/03/05 10:28:39;;;;;;;0.75;0.60;;;10.80;84.70;;;;;;5081359;27;20120;-80
2023/03/05 10:31:33;;;;;;;1.63;0.90;;;10.80;85.20;;;;;;5049713;27;20676;-79
2023/03/05 10:34:24;;;;;;;1.00;0.70;;;10.90;84.80;;;;;;5053956;27;20609;-79
2023/03/05 10:37:33;;;;;;;1.30;0.75;;;10.90;84.70;;;;;;5098292;27;20119;-78
2023/03/05 10:40:34;;;;;;;1.10;0.80;;;10.90;84.50;;;;;;5093441;27;20227;-78
2023/03/05 10:43:11;;;;;;;0.70;0.65;;;11.00;84.20;;;;;;5068049;27;20205;-78
2023/03/05 10:45:46;;;;;;;0.82;0.70;;;10.90;84.20;;;;;;5085922;27;20039;-80
2023/03/05 10:48:15;;;;;;;1.57;0.70;;;10.90;84.60;;;;;;5072556;27;20022;-78
2023/03/05 10:50:50;;;;;;;1.17;0.77;;;11.00;85.00;;;;;;5068462;27;20032;-80
2023/03/05 10:53:25;;;;;;;0.98;0.80;;;11.00;85.10;;;;;;5072446;28;20039;-80
2023/03/05 10:55:55;;;;;;;1.60;0.90;;;11.10;85.50;;;;;;5068817;27;20694;-79
2023/03/05 10:58:22;;;;;;;1.08;0.80;;;11.30;85.80;;;;;;5066926;27;20020;-79
2023/03/05 11:01:17;;;;;;;0.70;0.70;;;11.40;86.50;;;;;;5077719;27;20504;-78
2023/03/05 11:03:56;;;;;;;1.50;1.10;;;11.60;86.40;;;;;;5037036;27;20384;-80
2023/03/05 11:06:44;;;;;;;1.95;1.10;;;12.00;89.00;;;;;;5100123;27;20494;-77
2023/03/05 11:09:31;;;;;;;1.50;0.90;;;12.40;87.90;;;;;;5096675;27;20416;-77
2023/03/05 11:12:16;;;;;;;1.40;1.10;;;12.80;86.40;;;;;;5071468;27;20353;-78
2023/03/05 11:14:47;;;;;;;2.03;1.20;;;13.00;86.20;;;;;;5081599;27;20085;-81
2023/03/05 11:17:30;;;;;;;1.25;1.00;;;13.30;87.30;;;;;;5078654;28;20395;-78
2023/03/05 11:19:57;;;;;;;1.23;1.08;;;13.50;84.70;;;;;;5035229;28;21054;-78
2023/03/05 11:22:24;;;;;;;1.63;1.20;;;13.60;85.20;;;;;;5068668;27;20110;-79
2023/03/05 11:25:05;;;;;;;1.42;1.00;;;13.60;83.70;;;;;;5048880;27;20287;-79
2023/03/05 11:27:35;;;;;;;1.97;1.10;;;13.60;82.00;;;;;;5051715;28;20040;-81
2023/03/05 11:30:02;;;;;;;2.08;1.20;;;13.60;82.30;;;;;;5079059;28;20219;-79
2023/03/05 11:32:29;;;;;;;2.40;1.20;;;13.50;82.20;;;;;;5063320;28;20084;-81
2023/03/05 11:34:55;;;;;;;1.95;1.00;;;13.40;81.70;;;;;;5036423;28;20183;-78
2023/03/05 11:37:25;;;;;;;1.17;0.95;;;13.30;81.40;;;;;;5063090;28;20549;-78
2023/03/05 11:40:09;;;;;;;1.37;1.00;;;13.20;81.00;;;;;;5044552;28;20476;-80
2023/03/05 11:42:39;;;;;;;2.08;1.00;;;13.10;79.10;;;;;;5059987;28;20720;-80
2023/03/05 11:45:13;;;;;;;1.23;1.00;;;13.00;80.50;;;;;;5065544;28;20031;-80
2023/03/05 11:47:44;;;;;;;2.33;1.45;;;13.00;80.90;;;;;;5076605;28;20624;-77
2023/03/05 11:50:18;;;;;;;1.48;1.00;;;12.90;81.10;;;;;;5044034;28;20046;-84
2023/03/05 11:53:05;;;;;;;1.47;1.00;;;12.90;80.70;;;;;;5075935;28;20028;-82
2023/03/05 11:55:54;;;;;;;1.60;1.20;;;12.90;80.10;;;;;;5065426;28;20111;-79
2023/03/05 11:58:39;;;;;;;1.90;1.17;;;12.90;80.40;;;;;;5037064;28;20020;-79
2023/03/05 12:01:21;;;;;;;2.00;1.05;;;13.10;80.70;;;;;;5054808;28;20028;-79
2023/03/05 12:03:48;;;;;;;1.42;1.10;;;13.20;81.50;;;;;;5073580;28;20027;-80
2023/03/05 12:06:23;;;;;;;2.13;0.93;;;13.40;82.70;;;;;;5029048;28;25847;-81
2023/03/05 12:08:53;;;;;;;1.73;1.10;;;13.50;81.80;;;;;;5067318;28;20028;-79
2023/03/05 12:11:28;;;;;;;1.70;1.05;;;13.60;81.10;;;;;;5062622;28;20020;-81
2023/03/05 12:14:18;;;;;;;1.55;1.13;;;13.60;80.50;;;;;;5067179;28;20560;-80
2023/03/05 12:16:50;;;;;;;2.03;1.08;;;13.50;80.00;;;;;;5055471;28;20020;-80
2023/03/05 12:19:24;;;;;;;1.30;0.90;;;13.50;79.10;;;;;;5076642;28;20058;-78
2023/03/05 12:21:51;;;;;;;1.90;0.95;;;13.50;78.60;;;;;;5031903;28;20059;-81
2023/03/05 12:24:23;;;;;;;1.30;0.90;;;13.40;78.60;;;;;;5074090;28;20027;-80
2023/03/05 12:26:52;;;;;;;1.35;0.90;;;13.20;77.80;;;;;;5078322;28;20047;-80
2023/03/05 12:29:37;;;;;;;0.98;0.80;;;13.10;78.00;;;;;;5070650;28;20124;-79
2023/03/05 12:32:24;;;;;;;0.90;0.70;;;13.00;77.00;;;;;;5077348;28;20612;-80
2023/03/05 12:34:57;;;;;;;1.25;0.70;;;12.90;78.00;;;;;;5066588;28;20019;-81
2023/03/05 12:37:22;;;;;;;2.05;0.80;;;12.80;77.90;;;;;;5115920;27;20430;-78
2023/03/05 12:39:57;;;;;;;1.13;0.80;;;12.70;77.80;;;;;;5028131;28;20035;-80
2023/03/05 12:42:29;;;;;;;1.70;1.10;;;12.60;77.70;;;;;;5073923;28;20407;-80
2023/03/05 12:45:15;;;;;;;2.00;1.15;;;12.50;77.50;;;;;;5045764;28;20528;-79
2023/03/05 12:47:43;;;;;;;3.28;1.00;;;12.30;76.90;;;;;;5048591;28;20706;-80
2023/03/05 12:50:27;;;;;;;1.70;0.90;;;12.20;77.30;;;;;;5057209;28;20297;-78
2023/03/05 12:52:54;;;;;;;0.70;0.70;;;12.00;76.90;;;;;;5048225;28;21778;-80
2023/03/05 12:55:44;;;;;;;1.00;0.80;;;11.80;77.40;;;;;;5096666;28;20024;-81
2023/03/05 12:58:34;;;;;;;0.98;0.80;;;11.70;77.60;;;;;;5068558;28;20031;-80
2023/03/05 13:01:19;;;;;;;1.02;0.90;;;11.50;77.30;;;;;;5083343;28;20565;-78
2023/03/05 13:03:59;;;;;;;1.70;0.90;;;11.40;77.40;;;;;;5051857;27;20116;-79
2023/03/05 13:06:29;;;;;;;1.10;0.70;;;11.30;77.60;;;;;;5031780;28;20590;-80
2023/03/05 13:09:00;;;;;;;1.00;0.60;;;11.10;77.70;;;;;;5039807;27;20028;-80